Time;durP1;ratioP1;P1;durP2;ratioP2;P2;SDS_P1;SDS_P2;PMS_P1;PMS_P2;Temp;Humidity;BMP_temperature;BMP_pressure;BME280_temperature;BME280_humidity;BME280_pressure;Samples;Min_cycle;Max_cycle;Signal;HPM_P1;HPM_P2
2022/11/02 00:01:01;;;;;;;1.63;1.52;;;;;;;;;;5044328;28;20519;-81
2022/11/02 00:03:28;;;;;;;9.65;1.85;;;;;;;;;;5021249;28;20029;-84
2022/11/02 00:05:54;;;;;;;3.42;1.90;;;;;;;;;;5024857;28;20025;-83
2022/11/02 00:08:20;;;;;;;3.90;1.80;;;;;;;;;;5043622;28;20599;-83
2022/11/02 00:10:46;;;;;;;3.47;1.65;;;;;;;;;;5041079;28;20033;-83
2022/11/02 00:13:19;;;;;;;3.58;1.90;;;;;;;;;;5040895;28;20040;-81
2022/11/02 00:15:46;;;;;;;3.13;1.83;;;;;;;;;;5023756;28;20060;-83
2022/11/02 00:18:13;;;;;;;3.25;1.88;;;;;;;;;;5041211;28;20033;-80
2022/11/02 00:20:41;;;;;;;3.53;1.80;;;;;;;;;;5042374;28;20500;-85
2022/11/02 00:23:09;;;;;;;2.20;1.67;;;;;;;;;;5011402;28;20033;-85
2022/11/02 00:25:38;;;;;;;3.75;1.73;;;;;;;;;;5041682;28;20044;-83
2022/11/02 00:28:04;;;;;;;3.13;2.00;;;;;;;;;;5026255;28;20678;-84
2022/11/02 00:30:31;;;;;;;2.05;1.75;;;;;;;;;;5025211;28;20516;-86
2022/11/02 00:32:57;;;;;;;5.20;2.05;;;;;;;;;;5041302;28;20060;-82
2022/11/02 00:35:23;;;;;;;9.05;2.00;;;;;;;;;;5040200;28;20033;-88
2022/11/02 00:37:49;;;;;;;2.92;2.33;;;;;;;;;;5027970;28;20041;-85
2022/11/02 00:40:17;;;;;;;1.73;1.55;;;;;;;;;;5027997;28;20536;-85
2022/11/02 00:42:43;;;;;;;7.75;2.17;;;;;;;;;;5022643;28;20239;-85
2022/11/02 00:45:11;;;;;;;4.03;1.92;;;;;;;;;;5012087;28;20032;-84
2022/11/02 00:47:37;;;;;;;3.15;1.88;;;;;;;;;;5012016;28;20075;-84
2022/11/02 00:50:04;;;;;;;5.35;2.00;;;;;;;;;;5039620;28;20083;-85
2022/11/02 00:52:32;;;;;;;1.98;1.40;;;;;;;;;;5023322;28;20495;-83
2022/11/02 00:54:58;;;;;;;3.67;2.22;;;;;;;;;;5041064;28;20055;-82
2022/11/02 00:57:24;;;;;;;4.38;2.38;;;;;;;;;;5042941;28;20039;-84
2022/11/02 00:59:53;;;;;;;4.38;2.00;;;;;;;;;;5024921;28;20086;-81
2022/11/02 01:02:19;;;;;;;4.55;2.10;;;;;;;;;;5011460;28;20049;-80
2022/11/02 01:04:45;;;;;;;2.08;1.50;;;;;;;;;;5039544;28;20080;-85
2022/11/02 01:07:11;;;;;;;5.93;1.98;;;;;;;;;;5022770;28;20064;-86
2022/11/02 01:09:38;;;;;;;1.67;1.42;;;;;;;;;;5026367;28;20072;-79
2022/11/02 01:12:04;;;;;;;2.45;1.60;;;;;;;;;;5023511;28;20083;-84
2022/11/02 01:14:31;;;;;;;2.50;1.52;;;;;;;;;;5039518;28;20025;-85
2022/11/02 01:16:57;;;;;;;3.55;1.70;;;;;;;;;;5024013;28;20029;-81
2022/11/02 01:19:24;;;;;;;3.67;1.73;;;;;;;;;;5041059;28;20438;-80
2022/11/02 01:21:50;;;;;;;2.13;1.52;;;;;;;;;;5040342;28;20404;-81
2022/11/02 01:24:16;;;;;;;4.60;2.10;;;;;;;;;;5028185;28;20430;-83
2022/11/02 01:26:42;;;;;;;4.45;2.25;;;;;;;;;;5022188;28;20033;-82
2022/11/02 01:29:11;;;;;;;4.82;1.77;;;;;;;;;;5026970;28;20040;-82
2022/11/02 01:31:37;;;;;;;5.07;1.80;;;;;;;;;;5011294;28;20037;-81
2022/11/02 01:34:03;;;;;;;5.30;2.13;;;;;;;;;;5022894;28;20039;-81
2022/11/02 01:36:29;;;;;;;2.85;2.10;;;;;;;;;;5015387;28;20093;-86
2022/11/02 01:38:56;;;;;;;5.65;2.35;;;;;;;;;;5051776;28;20064;-87
2022/11/02 01:41:22;;;;;;;3.47;2.22;;;;;;;;;;5054194;28;20044;-87
2022/11/02 01:43:49;;;;;;;3.90;2.70;;;;;;;;;;4995877;28;20189;-83
2022/11/02 01:46:21;;;;;;;4.65;2.72;;;;;;;;;;5022509;28;20124;-84
2022/11/02 01:48:47;;;;;;;5.25;2.70;;;;;;;;;;5024429;28;20060;-84
2022/11/02 01:51:17;;;;;;;5.28;3.20;;;;;;;;;;5039883;28;20032;-84
2022/11/02 01:53:45;;;;;;;6.80;3.58;;;;;;;;;;5026482;28;20476;-82
2022/11/02 01:56:13;;;;;;;6.95;3.50;;;;;;;;;;5028025;28;20502;-84
2022/11/02 01:58:40;;;;;;;4.32;3.08;;;;;;;;;;5028742;28;20041;-86
2022/11/02 02:01:07;;;;;;;8.27;4.10;;;;;;;;;;4998842;28;20120;-86
2022/11/02 02:03:35;;;;;;;7.32;4.18;;;;;;;;;;5011642;28;20094;-85
2022/11/02 02:06:08;;;;;;;7.07;4.28;;;;;;;;;;5025551;28;20044;-87
2022/11/02 02:08:36;;;;;;;7.45;4.65;;;;;;;;;;5016291;28;20041;-86
2022/11/02 02:11:03;;;;;;;7.82;4.70;;;;;;;;;;5010834;28;20029;-85
2022/11/02 02:13:29;;;;;;;7.75;4.72;;;;;;;;;;5026736;28;20521;-89
2022/11/02 02:16:02;;;;;;;6.80;4.30;;;;;;;;;;5013803;28;20033;-85
2022/11/02 02:18:29;;;;;;;12.88;5.15;;;;;;;;;;5014231;28;20029;-85
2022/11/02 02:21:07;;;;;;;7.20;4.88;;;;;;;;;;5042216;28;20033;-85
2022/11/02 02:23:38;;;;;;;7.13;4.75;;;;;;;;;;5027147;28;20032;-83
2022/11/02 02:26:20;;;;;;;9.43;4.65;;;;;;;;;;5009906;28;20031;-85
2022/11/02 02:28:54;;;;;;;6.63;4.68;;;;;;;;;;5042521;28;20029;-85
2022/11/02 02:31:20;;;;;;;7.75;4.38;;;;;;;;;;5027260;28;20056;-85
2022/11/02 02:33:55;;;;;;;6.68;4.47;;;;;;;;;;5009574;28;20478;-85
2022/11/02 02:36:34;;;;;;;8.40;5.45;;;;;;;;;;5024729;28;20102;-85
2022/11/02 02:39:19;;;;;;;6.72;3.92;;;;;;;;;;5024720;28;20068;-86
2022/11/02 02:41:51;;;;;;;8.05;4.13;;;;;;;;;;5030167;28;20071;-86
2022/11/02 02:44:21;;;;;;;7.32;4.20;;;;;;;;;;5030985;28;20033;-81
2022/11/02 02:46:52;;;;;;;7.45;4.15;;;;;;;;;;5030533;28;20036;-86
2022/11/02 02:49:21;;;;;;;7.95;3.88;;;;;;;;;;5042874;28;20039;-84
2022/11/02 02:51:48;;;;;;;5.47;3.55;;;;;;;;;;5024342;28;20040;-86
2022/11/02 02:54:25;;;;;;;6.88;3.40;;;;;;;;;;5045147;28;20120;-84
2022/11/02 02:56:58;;;;;;;8.40;3.60;;;;;;;;;;5034556;28;20468;-87
2022/11/02 02:59:27;;;;;;;7.40;3.60;;;;;;;;;;5015981;28;20044;-83
2022/11/02 03:01:57;;;;;;;5.53;3.00;;;;;;;;;;5011300;28;20025;-84
2022/11/02 03:04:23;;;;;;;6.40;3.10;;;;;;;;;;5008078;28;20029;-84
2022/11/02 03:06:51;;;;;;;5.15;2.78;;;;;;;;;;5040378;28;20031;-84
2022/11/02 03:09:36;;;;;;;5.90;2.83;;;;;;;;;;5029404;28;20086;-80
2022/11/02 03:12:05;;;;;;;6.25;2.72;;;;;;;;;;5029688;28;20820;-84
2022/11/02 03:14:40;;;;;;;4.78;2.13;;;;;;;;;;5025311;28;20559;-84
2022/11/02 03:17:20;;;;;;;3.28;2.40;;;;;;;;;;5010490;28;20048;-84
2022/11/02 03:19:52;;;;;;;5.35;2.35;;;;;;;;;;5023364;28;20098;-82
2022/11/02 03:22:28;;;;;;;3.33;2.00;;;;;;;;;;5025069;28;20121;-85
2022/11/02 03:24:59;;;;;;;3.35;2.15;;;;;;;;;;5024486;28;20027;-85
2022/11/02 03:27:35;;;;;;;4.15;1.95;;;;;;;;;;5029849;28;20033;-85
2022/11/02 03:30:08;;;;;;;5.10;2.20;;;;;;;;;;5006997;28;20460;-85
2022/11/02 03:32:48;;;;;;;4.20;2.22;;;;;;;;;;5009212;28;20044;-83
2022/11/02 03:35:16;;;;;;;2.38;1.70;;;;;;;;;;5023476;28;20102;-82
2022/11/02 03:37:56;;;;;;;3.15;1.75;;;;;;;;;;5042597;28;20029;-82
2022/11/02 03:40:35;;;;;;;3.08;1.75;;;;;;;;;;5023958;28;20048;-83
2022/11/02 03:43:03;;;;;;;4.45;1.67;;;;;;;;;;5026766;28;20712;-79
2022/11/02 03:45:33;;;;;;;2.75;1.70;;;;;;;;;;5031377;28;20028;-82
2022/11/02 03:48:01;;;;;;;2.33;1.70;;;;;;;;;;5029515;28;20052;-83
2022/11/02 03:50:29;;;;;;;4.00;1.95;;;;;;;;;;5005235;28;20508;-81
2022/11/02 03:53:05;;;;;;;2.83;1.88;;;;;;;;;;5008392;28;20044;-83
2022/11/02 03:55:45;;;;;;;2.75;1.67;;;;;;;;;;5024082;28;20041;-83
2022/11/02 03:58:11;;;;;;;4.20;2.33;;;;;;;;;;5042576;28;20111;-83
2022/11/02 04:00:46;;;;;;;3.83;1.75;;;;;;;;;;5028807;28;20095;-80
2022/11/02 04:03:13;;;;;;;2.58;1.90;;;;;;;;;;5038058;28;20012;-86
2022/11/02 04:05:42;;;;;;;3.63;1.88;;;;;;;;;;5022982;28;20037;-81
2022/11/02 04:08:28;;;;;;;8.00;2.45;;;;;;;;;;5007905;28;20415;-82
2022/11/02 04:16:35;;;;;;;2.60;1.70;;;;;;;;;;5008746;28;20131;-82
2022/11/02 04:27:26;;;;;;;3.67;2.28;;;;;;;;;;5010986;28;20439;-79
2022/11/02 04:29:53;;;;;;;5.13;2.22;;;;;;;;;;5006732;28;20047;-78
2022/11/02 04:35:09;;;;;;;3.85;2.63;;;;;;;;;;5023214;28;20108;-81
2022/11/02 04:40:30;;;;;;;3.33;2.13;;;;;;;;;;5006019;28;20091;-79
2022/11/02 04:42:57;;;;;;;3.03;2.10;;;;;;;;;;5040072;28;20037;-78
2022/11/02 04:45:23;;;;;;;5.50;2.45;;;;;;;;;;5010183;28;20029;-78
2022/11/02 04:47:49;;;;;;;2.88;2.40;;;;;;;;;;5040532;28;20528;-76
2022/11/02 04:50:16;;;;;;;4.90;2.63;;;;;;;;;;5029015;28;20032;-78
2022/11/02 04:52:43;;;;;;;4.18;2.22;;;;;;;;;;4992685;28;20442;-78
2022/11/02 04:55:09;;;;;;;5.20;2.40;;;;;;;;;;5006764;28;20531;-79
2022/11/02 04:57:37;;;;;;;3.70;2.17;;;;;;;;;;5023304;28;20575;-81
2022/11/02 05:00:06;;;;;;;4.88;2.75;;;;;;;;;;5027352;28;20032;-81
2022/11/02 05:02:32;;;;;;;3.85;2.90;;;;;;;;;;4991615;28;20042;-79
2022/11/02 05:04:59;;;;;;;5.50;2.90;;;;;;;;;;5011186;28;20024;-80
2022/11/02 05:07:25;;;;;;;6.03;3.10;;;;;;;;;;4990718;28;20083;-83
2022/11/02 05:09:52;;;;;;;6.18;2.88;;;;;;;;;;5022644;28;20407;-77
2022/11/02 05:12:18;;;;;;;5.28;2.83;;;;;;;;;;5022874;28;20052;-77
2022/11/02 05:14:44;;;;;;;6.05;3.40;;;;;;;;;;5008008;28;20488;-76
2022/11/02 05:17:12;;;;;;;6.32;3.17;;;;;;;;;;5005587;28;20412;-76
2022/11/02 05:19:39;;;;;;;5.25;3.50;;;;;;;;;;5041525;28;20449;-77
2022/11/02 05:22:05;;;;;;;6.30;3.92;;;;;;;;;;5004241;28;20119;-76
2022/11/02 05:24:33;;;;;;;5.28;3.17;;;;;;;;;;5022403;28;20170;-76
2022/11/02 05:27:00;;;;;;;6.53;3.47;;;;;;;;;;5023452;28;20436;-75
2022/11/02 05:29:28;;;;;;;6.25;3.53;;;;;;;;;;5010739;28;20040;-75
2022/11/02 05:31:56;;;;;;;6.80;3.80;;;;;;;;;;5025255;28;20033;-76
2022/11/02 05:34:22;;;;;;;4.28;3.42;;;;;;;;;;5026338;28;20052;-76
2022/11/02 05:36:49;;;;;;;5.57;3.35;;;;;;;;;;5009147;28;20036;-77
2022/11/02 05:39:15;;;;;;;6.38;3.47;;;;;;;;;;5026471;28;20440;-77
2022/11/02 05:41:42;;;;;;;6.03;3.63;;;;;;;;;;5027490;28;20039;-77
2022/11/02 05:44:08;;;;;;;6.07;3.38;;;;;;;;;;5042146;28;20021;-77
2022/11/02 05:46:38;;;;;;;7.50;3.80;;;;;;;;;;5027130;28;20040;-76
2022/11/02 05:49:04;;;;;;;6.07;3.50;;;;;;;;;;5045060;28;20477;-77
2022/11/02 05:51:30;;;;;;;4.95;3.38;;;;;;;;;;5043174;28;20037;-77
2022/11/02 05:53:56;;;;;;;3.35;3.03;;;;;;;;;;5045097;28;20124;-78
2022/11/02 05:56:22;;;;;;;3.67;3.22;;;;;;;;;;5025213;28;20119;-77
2022/11/02 05:58:50;;;;;;;5.50;3.55;;;;;;;;;;5044748;28;20145;-77
2022/11/02 06:01:16;;;;;;;6.85;3.50;;;;;;;;;;5026287;28;20029;-78
2022/11/02 06:03:42;;;;;;;4.50;3.53;;;;;;;;;;5009105;28;20079;-79
2022/11/02 06:06:11;;;;;;;5.55;3.90;;;;;;;;;;5010865;28;20555;-78
2022/11/02 06:08:37;;;;;;;4.60;3.63;;;;;;;;;;5028672;28;20044;-78
2022/11/02 06:11:08;;;;;;;5.68;3.80;;;;;;;;;;5043813;28;20117;-78
2022/11/02 06:13:34;;;;;;;4.97;3.97;;;;;;;;;;5042873;28;20037;-78
2022/11/02 06:16:01;;;;;;;5.65;3.53;;;;;;;;;;5011740;28;20033;-79
2022/11/02 06:18:27;;;;;;;5.82;3.40;;;;;;;;;;5013933;28;20040;-79
2022/11/02 06:20:56;;;;;;;4.78;3.67;;;;;;;;;;5010067;28;20070;-78
2022/11/02 06:23:22;;;;;;;6.10;4.28;;;;;;;;;;5042036;28;20033;-80
2022/11/02 06:25:52;;;;;;;6.35;3.88;;;;;;;;;;5043948;28;20029;-79
2022/11/02 06:28:18;;;;;;;8.90;4.60;;;;;;;;;;5014607;28;20047;-79
2022/11/02 06:30:45;;;;;;;5.43;3.50;;;;;;;;;;5012922;28;20029;-78
2022/11/02 06:33:11;;;;;;;7.05;4.22;;;;;;;;;;5042155;28;20044;-78
2022/11/02 06:35:37;;;;;;;7.28;4.47;;;;;;;;;;5030085;28;20044;-77
2022/11/02 06:38:03;;;;;;;7.60;4.55;;;;;;;;;;5011943;28;20450;-77
2022/11/02 06:40:30;;;;;;;6.57;4.38;;;;;;;;;;5029610;28;20493;-78
2022/11/02 06:42:56;;;;;;;6.63;4.85;;;;;;;;;;5023526;28;20091;-77
2022/11/02 06:45:23;;;;;;;7.47;4.72;;;;;;;;;;5044029;28;20041;-77
2022/11/02 06:47:49;;;;;;;6.45;4.40;;;;;;;;;;5024130;28;20041;-77
2022/11/02 06:50:16;;;;;;;8.20;4.60;;;;;;;;;;5025755;28;20041;-77
2022/11/02 06:52:43;;;;;;;6.53;4.70;;;;;;;;;;5040937;28;20846;-76
2022/11/02 06:55:10;;;;;;;6.32;4.63;;;;;;;;;;5012112;28;20044;-77
2022/11/02 06:57:37;;;;;;;7.82;5.15;;;;;;;;;;5041635;28;20131;-76
2022/11/02 07:00:07;;;;;;;7.90;4.78;;;;;;;;;;5028943;28;20029;-77
2022/11/02 07:02:34;;;;;;;8.15;5.45;;;;;;;;;;5043422;28;20538;-77
2022/11/02 07:05:01;;;;;;;8.20;5.28;;;;;;;;;;5025666;28;20061;-76
2022/11/02 07:07:27;;;;;;;7.45;4.65;;;;;;;;;;5022291;28;20117;-76
2022/11/02 07:09:53;;;;;;;6.40;4.85;;;;;;;;;;5027655;28;20036;-79
2022/11/02 07:12:20;;;;;;;9.80;5.00;;;;;;;;;;5009118;28;20029;-80
2022/11/02 07:14:46;;;;;;;8.20;4.88;;;;;;;;;;4993540;28;20037;-77
2022/11/02 07:17:12;;;;;;;6.70;4.78;;;;;;;;;;4996725;28;20029;-82
2022/11/02 07:19:38;;;;;;;6.30;4.53;;;;;;;;;;5043346;28;21575;-82
2022/11/02 07:22:05;;;;;;;5.65;4.40;;;;;;;;;;5020478;28;20024;-82
2022/11/02 07:24:31;;;;;;;5.45;3.78;;;;;;;;;;5042461;28;20028;-82
2022/11/02 07:26:57;;;;;;;7.07;4.47;;;;;;;;;;5042499;28;20026;-80
2022/11/02 07:29:23;;;;;;;7.68;4.57;;;;;;;;;;5024751;28;20131;-78
2022/11/02 07:31:50;;;;;;;7.00;4.75;;;;;;;;;;5042804;28;20033;-75
2022/11/02 07:34:17;;;;;;;9.13;5.18;;;;;;;;;;5042884;28;20112;-76
2022/11/02 07:36:43;;;;;;;6.78;4.20;;;;;;;;;;4996191;28;20384;-79
2022/11/02 07:39:10;;;;;;;6.60;4.35;;;;;;;;;;5009132;28;20040;-79
2022/11/02 07:41:36;;;;;;;4.57;4.07;;;;;;;;;;5024595;28;20025;-80
2022/11/02 07:44:02;;;;;;;6.45;4.38;;;;;;;;;;5041445;28;20063;-77
2022/11/02 07:47:00;;;;;;;8.45;4.72;;;;;;;;;;5027400;28;20412;-78
2022/11/02 07:49:27;;;;;;;6.95;4.40;;;;;;;;;;5043397;28;21471;-78
2022/11/02 07:51:53;;;;;;;5.40;4.10;;;;;;;;;;5023350;28;20036;-79
2022/11/02 07:54:19;;;;;;;6.88;4.25;;;;;;;;;;5039837;28;20055;-79
2022/11/02 07:56:45;;;;;;;7.03;4.30;;;;;;;;;;5024244;28;20067;-81
2022/11/02 07:59:12;;;;;;;5.18;3.80;;;;;;;;;;5043412;28;20048;-79
2022/11/02 08:01:38;;;;;;;8.68;4.22;;;;;;;;;;5041776;28;20735;-78
2022/11/02 08:04:04;;;;;;;9.82;4.03;;;;;;;;;;4996230;28;20408;-79
2022/11/02 08:06:31;;;;;;;7.20;4.60;;;;;;;;;;5022654;28;20491;-79
2022/11/02 08:08:57;;;;;;;6.25;4.28;;;;;;;;;;5022472;28;20535;-79
2022/11/02 08:11:24;;;;;;;8.57;4.32;;;;;;;;;;5043505;28;20055;-81
2022/11/02 08:13:50;;;;;;;6.55;4.82;;;;;;;;;;5023671;28;20090;-81
2022/11/02 08:16:17;;;;;;;8.70;4.63;;;;;;;;;;5023144;28;20040;-79
2022/11/02 08:18:43;;;;;;;6.28;4.47;;;;;;;;;;5042263;28;20034;-79
2022/11/02 08:21:09;;;;;;;5.70;4.25;;;;;;;;;;5042347;28;20025;-78
2022/11/02 08:23:35;;;;;;;6.43;4.53;;;;;;;;;;5008719;28;20484;-78
2022/11/02 08:26:01;;;;;;;7.50;4.72;;;;;;;;;;5024357;28;20662;-78
2022/11/02 08:28:30;;;;;;;6.03;4.32;;;;;;;;;;5041600;28;20059;-78
2022/11/02 08:30:57;;;;;;;6.35;4.95;;;;;;;;;;5040741;28;20033;-78
2022/11/02 08:33:23;;;;;;;8.13;4.60;;;;;;;;;;5041939;28;20047;-79
2022/11/02 08:35:51;;;;;;;7.57;4.53;;;;;;;;;;5008502;28;20568;-78
2022/11/02 08:38:21;;;;;;;7.03;5.03;;;;;;;;;;5038586;28;20029;-77
2022/11/02 08:40:48;;;;;;;6.65;4.32;;;;;;;;;;5025597;28;20037;-79
2022/11/02 08:43:14;;;;;;;10.60;4.90;;;;;;;;;;5040677;28;20107;-78
2022/11/02 08:45:42;;;;;;;7.47;4.65;;;;;;;;;;5040561;28;20600;-76
2022/11/02 08:48:08;;;;;;;7.97;5.07;;;;;;;;;;5025553;28;20123;-76
2022/11/02 08:50:35;;;;;;;8.63;5.55;;;;;;;;;;5010163;28;20737;-78
2022/11/02 08:53:01;;;;;;;6.70;4.57;;;;;;;;;;5039874;28;20135;-78
2022/11/02 08:55:27;;;;;;;6.80;4.47;;;;;;;;;;5010225;28;20127;-79
2022/11/02 08:57:55;;;;;;;8.95;4.75;;;;;;;;;;5011439;28;20098;-79
2022/11/02 09:00:22;;;;;;;6.93;4.10;;;;;;;;;;5040835;28;20134;-80
2022/11/02 09:03:08;;;;;;;8.38;4.53;;;;;;;;;;5042217;28;20112;-78
2022/11/02 09:05:35;;;;;;;6.18;4.50;;;;;;;;;;5041455;28;20126;-78
2022/11/02 09:08:03;;;;;;;6.07;4.45;;;;;;;;;;5021468;28;20677;-77
2022/11/02 09:10:31;;;;;;;7.50;4.63;;;;;;;;;;5022530;28;20033;-80
2022/11/02 09:12:58;;;;;;;7.63;4.20;;;;;;;;;;5039906;28;20535;-78
2022/11/02 09:15:25;;;;;;;6.03;4.20;;;;;;;;;;5009599;28;20035;-77
2022/11/02 09:17:51;;;;;;;8.15;4.28;;;;;;;;;;5024395;28;20037;-80
2022/11/02 09:20:18;;;;;;;8.90;4.65;;;;;;;;;;5023295;28;20404;-79
2022/11/02 09:22:44;;;;;;;8.25;4.95;;;;;;;;;;5022494;28;20030;-80
2022/11/02 09:25:11;;;;;;;7.95;4.90;;;;;;;;;;5039023;28;20028;-79
2022/11/02 09:27:37;;;;;;;6.75;4.88;;;;;;;;;;5005735;28;20040;-77
2022/11/02 09:30:04;;;;;;;6.60;4.88;;;;;;;;;;5039537;28;20037;-77
2022/11/02 09:32:32;;;;;;;9.27;5.03;;;;;;;;;;5040659;28;20504;-77
2022/11/02 09:35:00;;;;;;;8.75;5.25;;;;;;;;;;5022428;28;21075;-78
2022/11/02 09:37:26;;;;;;;7.28;4.40;;;;;;;;;;5040467;28;20029;-78
2022/11/02 09:39:53;;;;;;;7.65;4.97;;;;;;;;;;5039889;28;20029;-79
2022/11/02 09:42:19;;;;;;;6.53;4.57;;;;;;;;;;5021845;28;20060;-79
2022/11/02 09:44:49;;;;;;;6.90;4.88;;;;;;;;;;5023555;28;20108;-79
2022/11/02 09:47:15;;;;;;;26.45;5.30;;;;;;;;;;5009574;28;20148;-79
2022/11/02 09:49:42;;;;;;;8.73;4.90;;;;;;;;;;5021746;28;20039;-79
2022/11/02 09:52:13;;;;;;;8.88;5.07;;;;;;;;;;5040481;28;20083;-79
2022/11/02 09:54:45;;;;;;;6.97;4.97;;;;;;;;;;5038497;28;20067;-78
2022/11/02 09:57:13;;;;;;;6.55;4.60;;;;;;;;;;5007169;28;20554;-78
2022/11/02 09:59:40;;;;;;;10.40;5.20;;;;;;;;;;5039715;28;20037;-81
2022/11/02 10:02:12;;;;;;;7.25;4.53;;;;;;;;;;5041077;28;20037;-80
2022/11/02 10:04:48;;;;;;;6.60;4.45;;;;;;;;;;5023124;28;21007;-80
2022/11/02 10:07:14;;;;;;;8.07;4.55;;;;;;;;;;5039723;28;20033;-82
2022/11/02 10:09:48;;;;;;;9.00;5.15;;;;;;;;;;5024070;28;20443;-84
2022/11/02 10:12:16;;;;;;;7.10;4.90;;;;;;;;;;5040634;28;20033;-81
2022/11/02 10:14:56;;;;;;;7.68;5.15;;;;;;;;;;5006194;28;20132;-84
2022/11/02 10:17:25;;;;;;;7.00;5.30;;;;;;;;;;5043035;28;20045;-82
2022/11/02 10:19:59;;;;;;;7.88;5.20;;;;;;;;;;5043698;28;20127;-78
2022/11/02 10:22:28;;;;;;;8.27;5.38;;;;;;;;;;5044803;28;20044;-81
2022/11/02 10:24:56;;;;;;;8.20;5.15;;;;;;;;;;5025312;28;20781;-78
2022/11/02 10:27:28;;;;;;;8.38;4.85;;;;;;;;;;5043422;28;20087;-78
2022/11/02 10:29:58;;;;;;;8.88;5.15;;;;;;;;;;5029608;28;20037;-80
2022/11/02 10:32:24;;;;;;;6.43;4.53;;;;;;;;;;5024273;28;20041;-76
2022/11/02 10:34:50;;;;;;;7.97;4.72;;;;;;;;;;5041978;28;20127;-78
2022/11/02 10:37:16;;;;;;;8.57;5.00;;;;;;;;;;5024385;28;20040;-79
2022/11/02 10:39:48;;;;;;;7.15;4.93;;;;;;;;;;5040995;28;20045;-80
2022/11/02 10:42:14;;;;;;;7.97;4.78;;;;;;;;;;5025601;28;20101;-80
2022/11/02 10:44:49;;;;;;;6.65;4.63;;;;;;;;;;5027302;28;20040;-81
2022/11/02 10:47:18;;;;;;;6.45;4.30;;;;;;;;;;5043704;28;20032;-79
2022/11/02 10:49:47;;;;;;;6.80;4.45;;;;;;;;;;4997590;28;20037;-81
2022/11/02 10:52:16;;;;;;;8.20;4.78;;;;;;;;;;5007435;28;20139;-80
2022/11/02 10:54:42;;;;;;;6.07;4.50;;;;;;;;;;5006885;28;20524;-81
2022/11/02 10:57:13;;;;;;;7.93;4.97;;;;;;;;;;5008536;28;20029;-81
2022/11/02 10:59:39;;;;;;;7.30;5.25;;;;;;;;;;5041436;28;20032;-80
2022/11/02 11:02:11;;;;;;;7.50;5.05;;;;;;;;;;5025871;28;20034;-80
2022/11/02 11:04:37;;;;;;;6.55;4.65;;;;;;;;;;5042834;28;20501;-79
2022/11/02 11:07:05;;;;;;;8.52;5.07;;;;;;;;;;5043949;28;20036;-79
2022/11/02 11:09:39;;;;;;;8.82;5.82;;;;;;;;;;5022955;28;20037;-78
2022/11/02 11:12:06;;;;;;;7.88;5.50;;;;;;;;;;5006819;28;20619;-79
2022/11/02 11:14:36;;;;;;;9.15;5.15;;;;;;;;;;5026396;28;20040;-78
2022/11/02 11:17:02;;;;;;;6.50;5.22;;;;;;;;;;5029241;28;20041;-78
2022/11/02 11:19:29;;;;;;;7.50;4.45;;;;;;;;;;5041073;28;20044;-78
2022/11/02 11:21:55;;;;;;;8.73;5.07;;;;;;;;;;5029854;28;20036;-78
2022/11/02 11:24:23;;;;;;;8.27;5.28;;;;;;;;;;5022776;28;20584;-78
2022/11/02 11:27:00;;;;;;;8.82;4.70;;;;;;;;;;5042088;28;20033;-78
2022/11/02 11:29:29;;;;;;;8.70;5.10;;;;;;;;;;5025230;28;20412;-79
2022/11/02 11:31:55;;;;;;;6.18;4.45;;;;;;;;;;5010879;28;20037;-79
2022/11/02 11:34:26;;;;;;;6.70;4.72;;;;;;;;;;5021991;28;20513;-79
2022/11/02 11:36:53;;;;;;;8.70;4.32;;;;;;;;;;5042845;28;20058;-80
2022/11/02 11:39:23;;;;;;;6.38;4.30;;;;;;;;;;5040686;28;21228;-80
2022/11/02 11:41:50;;;;;;;9.10;4.97;;;;;;;;;;5041897;28;20021;-78
2022/11/02 11:44:16;;;;;;;7.03;4.53;;;;;;;;;;5025532;28;20033;-79
2022/11/02 11:46:48;;;;;;;5.63;4.40;;;;;;;;;;5012792;28;20029;-72
2022/11/02 11:49:21;;;;;;;8.02;4.20;;;;;;;;;;5041723;28;20029;-78
2022/11/02 11:51:49;;;;;;;7.30;4.70;;;;;;;;;;5041628;28;20036;-78
2022/11/02 11:54:21;;;;;;;8.77;4.70;;;;;;;;;;5041770;28;20057;-77
2022/11/02 11:56:48;;;;;;;7.93;5.10;;;;;;;;;;5040818;28;20056;-78
2022/11/02 11:59:31;;;;;;;9.18;4.93;;;;;;;;;;5022394;28;20029;-83
2022/11/02 12:01:58;;;;;;;10.57;4.80;;;;;;;;;;5041355;28;20033;-81
2022/11/02 12:04:28;;;;;;;8.27;4.57;;;;;;;;;;5023994;28;20432;-84
2022/11/02 12:07:20;;;;;;;7.32;4.90;;;;;;;;;;5029263;28;20919;-82
2022/11/02 12:10:15;;;;;;;7.18;4.57;;;;;;;;;;5003248;28;20602;-82
2022/11/02 12:12:47;;;;;;;5.43;3.70;;;;;;;;;;4993414;28;20052;-81
2022/11/02 12:15:26;;;;;;;5.93;4.10;;;;;;;;;;5011733;28;20044;-80
2022/11/02 12:17:52;;;;;;;5.57;3.72;;;;;;;;;;5044370;28;20094;-83
2022/11/02 12:20:18;;;;;;;5.75;4.50;;;;;;;;;;5024798;28;20053;-85
2022/11/02 12:22:53;;;;;;;8.27;4.63;;;;;;;;;;5023872;28;20041;-88
2022/11/02 12:25:31;;;;;;;6.95;4.18;;;;;;;;;;4993124;28;20468;-82
2022/11/02 12:28:15;;;;;;;7.88;4.50;;;;;;;;;;5025071;28;20033;-85
2022/11/02 12:30:45;;;;;;;7.30;4.10;;;;;;;;;;5012539;28;20042;-88
2022/11/02 12:33:14;;;;;;;5.47;4.00;;;;;;;;;;5008469;28;20040;-88
2022/11/02 12:35:49;;;;;;;7.95;4.35;;;;;;;;;;5030206;28;20075;-90
2022/11/02 12:38:27;;;;;;;8.52;4.22;;;;;;;;;;5007817;28;20044;-89
2022/11/02 12:40:54;;;;;;;7.78;5.00;;;;;;;;;;5024950;28;20033;-79
2022/11/02 12:43:32;;;;;;;8.05;3.95;;;;;;;;;;5023435;28;20029;-80
2022/11/02 12:46:06;;;;;;;5.47;3.47;;;;;;;;;;5024386;28;20053;-77
2022/11/02 12:48:48;;;;;;;5.85;3.47;;;;;;;;;;5050442;28;20040;-88
2022/11/02 12:51:19;;;;;;;6.95;4.20;;;;;;;;;;5001235;28;20091;-87
2022/11/02 12:53:55;;;;;;;7.22;4.38;;;;;;;;;;5041691;28;20053;-87
2022/11/02 12:56:36;;;;;;;5.50;4.18;;;;;;;;;;5025071;28;20043;-87
2022/11/02 12:59:03;;;;;;;5.90;3.80;;;;;;;;;;5011747;28;20037;-88
2022/11/02 13:01:39;;;;;;;8.07;4.43;;;;;;;;;;5010468;28;20037;-87
2022/11/02 13:04:09;;;;;;;9.50;3.85;;;;;;;;;;5027554;28;20025;-89
2022/11/02 13:06:43;;;;;;;7.97;4.50;;;;;;;;;;5028097;28;21479;-86
2022/11/02 13:09:12;;;;;;;7.97;4.35;;;;;;;;;;4995277;28;20040;-86
2022/11/02 13:11:46;;;;;;;4.65;3.60;;;;;;;;;;4992311;28;20033;-84
2022/11/02 13:14:16;;;;;;;5.13;3.88;;;;;;;;;;5027902;28;20482;-85
2022/11/02 13:17:17;;;;;;;8.50;3.95;;;;;;;;;;5041216;28;20590;-85
2022/11/02 13:19:53;;;;;;;7.32;3.75;;;;;;;;;;4949568;28;20030;-87
2022/11/02 13:22:21;;;;;;;5.80;3.70;;;;;;;;;;5001296;28;20041;-88
2022/11/02 13:24:50;;;;;;;6.45;3.97;;;;;;;;;;5005657;28;20025;-83
2022/11/02 13:27:37;;;;;;;6.95;3.38;;;;;;;;;;5026887;28;20025;-84
2022/11/02 13:30:13;;;;;;;6.85;4.00;;;;;;;;;;4997455;28;20677;-82
2022/11/02 13:33:00;;;;;;;5.95;3.95;;;;;;;;;;5030928;28;20082;-82
2022/11/02 13:35:34;;;;;;;5.68;4.13;;;;;;;;;;5006948;28;20409;-84
2022/11/02 13:38:13;;;;;;;9.82;3.97;;;;;;;;;;5013720;28;20030;-83
2022/11/02 13:40:42;;;;;;;5.32;3.60;;;;;;;;;;5011206;28;20057;-84
2022/11/02 13:43:27;;;;;;;6.70;3.80;;;;;;;;;;5028435;28;20025;-84
2022/11/02 13:46:07;;;;;;;5.65;3.50;;;;;;;;;;5032133;28;20036;-86
2022/11/02 13:48:39;;;;;;;7.22;4.15;;;;;;;;;;5016175;28;20051;-86
2022/11/02 13:51:31;;;;;;;6.55;4.07;;;;;;;;;;5032784;28;20049;-86
2022/11/02 13:54:04;;;;;;;4.75;3.45;;;;;;;;;;5023409;28;20044;-84
2022/11/02 13:56:34;;;;;;;7.15;4.20;;;;;;;;;;5033274;28;20025;-83
2022/11/02 13:59:02;;;;;;;6.00;3.60;;;;;;;;;;5048852;28;20056;-85
2022/11/02 14:01:31;;;;;;;6.65;4.07;;;;;;;;;;5026087;28;20029;-83
2022/11/02 14:04:01;;;;;;;7.65;4.22;;;;;;;;;;5010480;28;20029;-81
2022/11/02 14:06:28;;;;;;;5.50;3.08;;;;;;;;;;5044134;28;20440;-82
2022/11/02 14:08:54;;;;;;;5.25;3.10;;;;;;;;;;5026414;28;20079;-84
2022/11/02 14:11:20;;;;;;;6.35;2.80;;;;;;;;;;5027013;28;20603;-82
2022/11/02 14:13:53;;;;;;;3.83;2.78;;;;;;;;;;4994801;28;20123;-83
2022/11/02 14:16:38;;;;;;;5.90;3.30;;;;;;;;;;5028011;28;20041;-84
2022/11/02 14:19:19;;;;;;;5.78;3.25;;;;;;;;;;5014351;28;20128;-82
2022/11/02 14:21:46;;;;;;;6.07;3.55;;;;;;;;;;5044967;28;20028;-83
2022/11/02 14:24:30;;;;;;;6.60;3.60;;;;;;;;;;5015171;28;20043;-84
2022/11/02 14:26:58;;;;;;;6.57;4.28;;;;;;;;;;5028004;28;20033;-81
2022/11/02 14:29:44;;;;;;;5.65;3.42;;;;;;;;;;5010042;28;20135;-85
2022/11/02 14:32:19;;;;;;;9.93;4.13;;;;;;;;;;5008356;28;20040;-85
2022/11/02 14:34:45;;;;;;;6.50;3.80;;;;;;;;;;5014046;28;20057;-83
2022/11/02 14:37:24;;;;;;;7.07;3.83;;;;;;;;;;5025811;28;20746;-87
2022/11/02 14:39:54;;;;;;;5.70;3.45;;;;;;;;;;5014201;28;20033;-89
2022/11/02 14:42:36;;;;;;;5.88;3.72;;;;;;;;;;5047729;28;20538;-86
2022/11/02 14:45:06;;;;;;;5.78;3.72;;;;;;;;;;5049426;28;20124;-84
2022/11/02 14:47:34;;;;;;;6.38;3.90;;;;;;;;;;5051750;28;20025;-88
2022/11/02 14:50:00;;;;;;;5.55;3.45;;;;;;;;;;5033306;28;20190;-86
2022/11/02 14:52:27;;;;;;;6.40;3.83;;;;;;;;;;5034404;28;20492;-85
2022/11/02 14:54:53;;;;;;;7.00;3.42;;;;;;;;;;5017708;28;20535;-81
2022/11/02 14:57:26;;;;;;;4.97;3.50;;;;;;;;;;5027033;28;20048;-80
2022/11/02 14:59:54;;;;;;;7.60;4.00;;;;;;;;;;5018783;28;20505;-80
2022/11/02 15:02:24;;;;;;;5.10;3.78;;;;;;;;;;5034877;28;20033;-81
2022/11/02 15:04:52;;;;;;;11.23;3.55;;;;;;;;;;5032495;28;20037;-81
2022/11/02 15:07:23;;;;;;;9.13;4.30;;;;;;;;;;5019370;28;20462;-82
2022/11/02 15:10:00;;;;;;;4.88;3.28;;;;;;;;;;5035486;28;20060;-82
2022/11/02 15:12:40;;;;;;;8.93;3.00;;;;;;;;;;5033622;28;20064;-82
2022/11/02 15:15:27;;;;;;;6.78;3.63;;;;;;;;;;5030595;28;20030;-83
2022/11/02 15:17:58;;;;;;;8.15;3.60;;;;;;;;;;5015641;28;20033;-81